• Join FlightAware (Why Join?)
  • Login
  • US Flag 
05:44PM EDT


 

Airport Tracker/Info


-or-


 

Live Flight TrackerFlight Track Log ✈ FSR411 ✈ 18-Mar-2014 ✈ KCMI - KDET

Flight Track Log - Related Links

Times and Time Zones

All times are in EDT time to prevent confusion due to time zone crossing. See the FSR411 flight status page for this flight to view local times or setup timezone preferences in your user account.

Time Position Orientation Groundspeed Altitude Reporting Facility
EDT Latitude Longitude Course Direction KTS MPH feet Rate Location/Type
07:05AM 40.0375 -88.2047 65° Northeast 210 242 27,000  Level Chicago Center
07:06AM 40.0636 -88.1308 65° Northeast 230 265 7,700 -7,860 Descending Chicago Center
07:07AM 40.0919 -88.0425 67° East 258 297 11,100 3,240 Climbing Chicago Center
07:08AM 40.1272 -87.9347 67° East 316 364 14,400 3,300 Climbing Chicago Center
07:09AM 40.1697 -87.8069 66° East 375 432 17,800 3,240 Climbing Chicago Center
07:10AM 40.2228 -87.6406 67° East 427 491 21,000 2,760 Climbing Chicago Center
07:11AM 40.2728 -87.4842 67° East 462 532 23,500 2,460 Climbing Chicago Center
07:12AM 40.3175 -87.3464 67° East 475 547 26,100 1,680 Climbing Chicago Center
07:13AM 40.3697 -87.1814 67° East 486 559 27,000 420 Climbing Chicago Center
07:14AM 40.4247 -87.0089 67° East 508 585 27,000  Level Chicago Center
07:15AM 40.4908 -86.8008 67° East 513 590 27,000  Level Chicago Center
07:16AM 40.5450 -86.6269 68° East 513 590 27,000  Level Chicago Center
07:17AM 40.5981 -86.4533 68° East 510 587 27,000  Level Chicago Center
07:18AM 40.6522 -86.2769 68° East 516 594 27,000  Level Chicago Center
07:19AM 40.7017 -86.1189 68° East 512 589 27,000  Level Chicago Center
07:20AM 40.7542 -85.9447 68° East 515 593 27,000 -600 Level Chicago Center
07:21AM 40.8064 -85.7739 68° East 506 582 25,800 -1,440 Descending Chicago Center
07:23AM 40.8664 -85.5711 69° East 499 574 24,100 -1,500 Descending Chicago Center
07:24AM 40.9150 -85.4058 69° East 488 562 22,800 -1,380 Descending Chicago Center
07:25AM 40.9647 -85.2406 68° East 487 560 21,400 -1,380 Descending Chicago Center
07:26AM 41.0136 -85.0853 67° East 472 543 20,000 -1,380 Descending Chicago Center
07:27AM 41.0606 -84.9353 67° East 452 520 18,700 -1,320 Descending Chicago Center
07:28AM 41.1053 -84.7875 68° East 441 507 17,300 -1,380 Descending Chicago Center
07:29AM 41.1492 -84.6456 68° East 424 488 15,900 -1,380 Descending Chicago Center
07:30AM 41.1908 -84.5119 67° East 399 459 14,500 -1,320 Descending Chicago Center
07:31AM 41.2383 -84.3550 68° East 386 444 13,200 -900 Descending Chicago Center
07:32AM 41.2772 -84.2253 68° East 380 437 12,700 -780 Descending Chicago Center
07:33AM 41.3169 -84.0917 68° East 387 445 11,700 -1,020 Descending Chicago Center
07:34AM 41.3578 -83.9597 68° East 388 447 10,700 -960 Descending Chicago Center
07:35AM 41.3867 -83.8614 69° East 379 436 10,000 -420 Descending Cleveland Center
07:36AM 41.4231 -83.7339 69° East 375 432 10,000  Level Cleveland Center
07:37AM 41.4625 -83.6058 68° East 373 429 10,000 60 Level Cleveland Center
07:37AM 41.4931 -83.5297 62° Northeast 376 433 10,100  Climbing Cleveland Center
07:38AM 41.5222 -83.4628 60° Northeast 373 429 10,000  Descending Cleveland Center
07:38AM 41.5342 -83.4350 60° Northeast 371 427 10,100  Climbing Cleveland Center
07:39AM 41.5767 -83.3211 63° Northeast 374 430 10,000 -120 Descending Cleveland Center
07:40AM 41.6178 -83.2186 62° Northeast 373 429 9,900  Descending Cleveland Center
07:40AM 41.6239 -83.2019 64° Northeast 370 426 10,000 -660 Climbing Cleveland Center
07:41AM 41.6656 -83.0958 62° Northeast 282 325 9,200 -960 Descending Cleveland Center
07:42AM 41.6961 -83.0222 61° Northeast 291 335 8,200 -660 Descending Cleveland Center
07:43AM 41.7558 -82.9286 49° Northeast 289 333 8,000 -240 Descending Cleveland Center
07:43AM 41.7575 -82.9292 346° North 281 323 8,000  Level Cleveland Center
07:44AM 41.8136 -82.8564 44° Northeast 289 333 8,000  Level Cleveland Center
07:44AM 41.8156 -82.8531 52° Northeast 289 333 8,000  Level Cleveland Center
07:45AM 41.8706 -82.7822 44° Northeast 289 333 8,000  Level Cleveland Center
07:45AM 41.8733 -82.7794 37° Northeast 286 329 8,000 -1,500 Level Cleveland Center
07:46AM 41.9408 -82.7461 20° North 260 299 6,500 -1,440 Descending Cleveland Center
07:47AM 42.0072 -82.7831 338° Northwest 264 304 5,100 -1,320 Descending Cleveland Center
07:47AM 42.0000 -82.7792 158° South 263 303 5,200 -900 Climbing Cleveland Center
07:48AM 42.0756 -82.8228 337° Northwest 265 305 4,200 -900 Descending Cleveland Center
07:48AM 42.0678 -82.8167 150° Southeast 263 303 4,300 -240 Climbing Cleveland Center
07:49AM 42.1419 -82.8597 337° Northwest 260 299 4,000 -300 Descending Cleveland Center
07:49AM 42.1475 -82.8622 342° North 263 303 4,000 -420 Level Cleveland Center
07:50AM 42.2111 -82.8975 338° Northwest 254 292 3,600 -540 Descending Cleveland Center
07:51AM 42.2706 -82.9333 336° Northwest 235 270 3,000 -600 Descending Cleveland Center
07:51AM 42.2711 -82.9319 62° Northeast 243 280 3,000  Level Cleveland Center
07:52AM 42.3222 -82.9686 332° Northwest 201 231 3,000  Level Cleveland Center
07:52AM 42.3225 -82.9664 80° East 221 254 3,000 -360 Level Cleveland Center
07:53AM 42.3636 -83.0053 325° Northwest 185 213 2,700 -420 Descending Cleveland Center
07:53AM 42.3686 -83.0058 355° North 204 235 2,600 -540 Descending Cleveland Center
07:54AM 42.3967 -83.0408 317° Northwest 143 165 2,200 -420 Descending Cleveland Center
07:54AM 42.3992 -83.0428 330° Northwest 172 198 2,200 -480 Level Cleveland Center
07:55AM 42.4364 -83.0567 345° North 149 171 1,600 -660 Descending Cleveland Center
07:56AM 42.4308 -83.0314 107° East 116 133 1,100 -720 Descending Cleveland Center
07:56AM 42.4239 -83.0231 138° Southeast 128 147 900 -780 Descending Cleveland Center